Time;durP1;ratioP1;P1;durP2;ratioP2;P2;SDS_P1;SDS_P2;PMS_P1;PMS_P2;Temp;Humidity;BMP_temperature;BMP_pressure;BME280_temperature;BME280_humidity;BME280_pressure;Samples;Min_cycle;Max_cycle;Signal;HPM_P1;HPM_P2
2022/08/20 00:00:12;;;;;;;25.25;15.85;;;;;;;19.93;100.00;101196.53;5045328;28;20515;-80
2022/08/20 00:02:53;;;;;;;26.73;15.50;;;;;;;19.84;100.00;101192.91;5063321;28;20037;-81
2022/08/20 00:05:34;;;;;;;23.42;15.27;;;;;;;19.71;100.00;101190.63;5063025;28;20024;-80
2022/08/20 00:07:59;;;;;;;27.95;16.42;;;;;;;19.73;100.00;101185.75;5064527;28;20036;-81
2022/08/20 00:10:30;;;;;;;28.60;16.85;;;;;;;19.77;100.00;101180.72;5076515;28;20064;-80
2022/08/20 00:13:00;;;;;;;27.63;16.50;;;;;;;19.85;100.00;101185.44;5079860;28;20031;-80
2022/08/20 00:15:29;;;;;;;29.75;16.80;;;;;;;19.87;100.00;101184.19;5066065;28;20388;-81
2022/08/20 00:17:57;;;;;;;27.67;16.48;;;;;;;19.69;100.00;101175.16;5038312;28;20411;-81
2022/08/20 00:20:26;;;;;;;29.25;17.48;;;;;;;19.64;100.00;101186.78;5073418;28;20822;-82
2022/08/20 00:22:53;;;;;;;27.58;16.48;;;;;;;19.58;100.00;101176.38;5067392;28;20028;-81
2022/08/20 00:25:24;;;;;;;29.73;17.02;;;;;;;19.69;100.00;101184.34;5065546;28;20044;-81
2022/08/20 00:27:49;;;;;;;29.65;18.90;;;;;;;19.80;100.00;101181.25;5065727;28;20395;-82
2022/08/20 00:30:16;;;;;;;27.60;17.38;;;;;;;19.71;100.00;101179.50;5072696;28;20035;-82
2022/08/20 00:33:02;;;;;;;31.35;17.45;;;;;;;19.62;100.00;101186.94;5067049;28;20052;-81
2022/08/20 00:35:32;;;;;;;36.28;17.67;;;;;;;19.73;100.00;101179.31;5077026;28;20024;-80
2022/08/20 00:37:59;;;;;;;25.27;16.40;;;;;;;19.76;100.00;101179.88;5057272;28;20059;-82
2022/08/20 00:40:28;;;;;;;27.67;16.00;;;;;;;19.77;100.00;101183.50;5063042;28;21797;-80
2022/08/20 00:42:58;;;;;;;33.67;17.33;;;;;;;19.65;100.00;101181.03;5066524;28;20161;-81
2022/08/20 00:45:27;;;;;;;26.45;17.00;;;;;;;19.52;100.00;101177.06;5066118;28;20029;-82
2022/08/20 00:47:55;;;;;;;27.67;16.58;;;;;;;19.53;100.00;101181.56;5067040;28;20439;-80
2022/08/20 00:50:28;;;;;;;29.58;16.63;;;;;;;19.48;100.00;101179.31;5061311;28;20033;-81
2022/08/20 00:52:54;;;;;;;30.88;17.63;;;;;;;19.62;100.00;101181.38;5062604;28;20071;-80
2022/08/20 00:55:24;;;;;;;32.22;16.38;;;;;;;19.57;100.00;101183.81;5079187;28;20051;-80
2022/08/20 00:57:55;;;;;;;25.25;15.30;;;;;;;19.55;100.00;101180.34;5044731;28;20033;-82
2022/08/20 01:00:28;;;;;;;25.33;16.83;;;;;;;19.69;100.00;101180.69;5064188;28;20423;-80
2022/08/20 01:02:56;;;;;;;29.98;17.42;;;;;;;19.55;100.00;101180.34;5065610;28;20032;-81
2022/08/20 01:05:24;;;;;;;28.92;15.88;;;;;;;19.67;100.00;101180.00;5064392;28;20037;-81
2022/08/20 01:07:52;;;;;;;27.67;16.58;;;;;;;19.65;100.00;101180.19;5047639;28;20431;-81
2022/08/20 01:10:22;;;;;;;24.30;15.80;;;;;;;19.73;100.00;101179.31;5062956;28;20025;-81
2022/08/20 01:12:52;;;;;;;29.77;15.95;;;;;;;19.67;100.00;101174.44;5075755;28;20048;-81
2022/08/20 01:15:25;;;;;;;26.25;16.25;;;;;;;19.65;100.00;101161.59;5071760;28;20111;-82
2022/08/20 01:17:56;;;;;;;33.03;16.73;;;;;;;19.64;100.00;101173.78;5054133;28;20481;-79
2022/08/20 01:20:32;;;;;;;29.10;16.42;;;;;;;19.65;100.00;101167.16;5064463;28;20024;-80
2022/08/20 01:26:05;;;;;;;26.45;15.70;;;;;;;19.69;100.00;101180.69;5066184;28;19919;-79
2022/08/20 01:28:38;;;;;;;27.30;16.27;;;;;;;19.66;100.00;101184.72;5061273;28;20054;-81
2022/08/20 01:31:08;;;;;;;29.95;17.17;;;;;;;19.66;100.00;101179.16;5043745;28;20068;-80
2022/08/20 01:33:35;;;;;;;32.03;17.13;;;;;;;19.72;100.00;101174.78;5068601;28;20108;-79
2022/08/20 01:36:03;;;;;;;30.60;16.83;;;;;;;19.68;100.00;101167.84;5071192;28;20020;-79
2022/08/20 01:38:29;;;;;;;30.10;17.80;;;;;;;19.60;100.00;101169.59;5059498;28;20063;-80
2022/08/20 01:41:25;;;;;;;33.75;17.08;;;;;;;19.59;100.00;101184.50;5067804;28;20060;-80
2022/08/20 01:43:56;;;;;;;33.03;18.27;;;;;;;19.56;100.00;101181.22;5060803;28;20033;-81
2022/08/20 01:46:33;;;;;;;35.45;18.70;;;;;;;19.48;100.00;101176.53;5048912;28;20104;-80
2022/08/20 01:49:06;;;;;;;34.40;18.88;;;;;;;19.48;100.00;101168.22;5074881;28;20032;-80
2022/08/20 01:51:32;;;;;;;31.23;18.83;;;;;;;19.42;100.00;101174.44;5063173;28;20033;-80
2022/08/20 01:53:58;;;;;;;36.58;19.75;;;;;;;19.43;100.00;101173.38;5076574;28;20038;-80
2022/08/20 01:56:27;;;;;;;34.72;20.40;;;;;;;19.39;100.00;101186.75;5067963;28;20035;-80
2022/08/20 01:58:58;;;;;;;35.63;19.25;;;;;;;19.40;100.00;101185.72;5066801;28;20080;-81
2022/08/20 02:01:38;;;;;;;35.47;19.20;;;;;;;19.41;100.00;101183.81;5060556;28;20084;-80
2022/08/20 02:04:07;;;;;;;37.10;19.23;;;;;;;19.43;100.00;101177.06;5061986;28;20032;-81
2022/08/20 02:06:39;;;;;;;33.10;18.90;;;;;;;19.43;100.00;101177.06;5067872;28;20373;-81
2022/08/20 02:09:07;;;;;;;33.97;19.38;;;;;;;19.37;100.00;101183.28;5079888;28;20135;-81
2022/08/20 02:11:33;;;;;;;36.30;20.05;;;;;;;19.25;100.00;101174.41;5074538;28;20037;-80
2022/08/20 02:14:00;;;;;;;43.63;20.60;;;;;;;19.45;100.00;101179.66;5061674;28;20035;-81
2022/08/20 02:16:34;;;;;;;35.15;19.17;;;;;;;19.43;100.00;101174.28;5058598;28;20039;-81
2022/08/20 02:19:11;;;;;;;34.70;18.48;;;;;;;19.52;100.00;101177.06;5057211;28;20056;-80
2022/08/20 02:21:42;;;;;;;32.45;19.40;;;;;;;19.39;100.00;101180.34;5069724;28;20039;-81
2022/08/20 02:24:09;;;;;;;33.97;18.85;;;;;;;19.40;100.00;101182.94;5044625;28;20028;-81
2022/08/20 02:26:36;;;;;;;33.88;17.45;;;;;;;19.52;100.00;101180.69;5066430;28;20067;-80
2022/08/20 02:29:05;;;;;;;32.80;18.38;;;;;;;19.37;100.00;101176.88;5055716;28;20044;-79
2022/08/20 02:31:31;;;;;;;35.58;19.23;;;;;;;19.44;100.00;101176.00;5062981;28;20535;-82
2022/08/20 02:33:57;;;;;;;35.05;19.05;;;;;;;19.54;100.00;101181.38;5029136;28;20032;-80
2022/08/20 02:36:23;;;;;;;38.05;19.33;;;;;;;19.49;100.00;101183.81;5052588;28;20036;-80
2022/08/20 02:38:49;;;;;;;32.50;19.27;;;;;;;19.48;100.00;101187.66;5043286;28;20123;-82
2022/08/20 02:41:20;;;;;;;38.35;21.20;;;;;;;19.46;100.00;101185.03;5069638;28;20503;-81
2022/08/20 02:43:50;;;;;;;39.20;20.50;;;;;;;19.48;100.00;101182.09;5077793;28;20119;-82
2022/08/20 02:46:18;;;;;;;37.20;21.48;;;;;;;19.53;100.00;101187.09;5037761;28;20036;-80
2022/08/20 02:48:44;;;;;;;34.53;20.17;;;;;;;19.55;100.00;101182.28;5054520;28;20091;-79
2022/08/20 02:51:13;;;;;;;39.88;22.65;;;;;;;19.41;100.00;101175.47;5069221;28;20484;-81
2022/08/20 02:53:41;;;;;;;41.20;22.35;;;;;;;19.47;100.00;101183.97;5059768;28;20051;-81
2022/08/20 02:56:09;;;;;;;43.95;24.13;;;;;;;19.50;100.00;101190.25;5060898;28;20498;-80
2022/08/20 02:58:35;;;;;;;38.17;22.77;;;;;;;19.56;100.00;101186.75;5064864;28;20079;-80
2022/08/20 03:01:03;;;;;;;38.00;22.95;;;;;;;19.55;100.00;101188.69;5064571;28;20028;-79
2022/08/20 03:03:30;;;;;;;45.05;23.27;;;;;;;19.56;100.00;101187.66;5050853;28;20456;-80
2022/08/20 03:05:58;;;;;;;44.00;24.02;;;;;;;19.52;100.00;101188.16;5051352;28;20029;-80
2022/08/20 03:08:28;;;;;;;41.55;23.38;;;;;;;19.52;100.00;101188.16;5031539;28;20044;-78
2022/08/20 03:10:54;;;;;;;40.40;24.30;;;;;;;19.52;100.00;101186.25;5070148;28;20365;-81
2022/08/20 03:13:27;;;;;;;42.70;24.58;;;;;;;19.53;100.00;101189.88;5033172;28;20384;-80
2022/08/20 03:15:56;;;;;;;45.15;25.17;;;;;;;19.49;100.00;101182.94;5045377;28;20024;-80
2022/08/20 03:18:24;;;;;;;54.38;24.63;;;;;;;19.39;100.00;101181.19;5042656;28;20389;-80
2022/08/20 03:20:54;;;;;;;41.53;24.88;;;;;;;19.41;100.00;101190.25;5066542;28;20084;-80
2022/08/20 03:23:20;;;;;;;45.30;24.77;;;;;;;19.40;100.00;101188.50;5064853;28;20041;-79
2022/08/20 03:25:47;;;;;;;44.33;25.58;;;;;;;19.33;100.00;101192.13;5074435;28;20039;-80
2022/08/20 03:28:15;;;;;;;47.65;26.20;;;;;;;19.28;100.00;101189.84;5058581;28;20033;-81
2022/08/20 03:30:42;;;;;;;50.60;26.00;;;;;;;19.31;100.00;101189.50;5056416;28;20087;-81
2022/08/20 03:33:08;;;;;;;50.10;28.25;;;;;;;19.43;100.00;101184.50;5054617;28;20028;-80
2022/08/20 03:35:35;;;;;;;55.65;29.88;;;;;;;19.34;100.00;101182.75;5069151;28;20500;-79
2022/08/20 03:38:09;;;;;;;55.80;28.10;;;;;;;19.31;100.00;101185.88;5073939;28;20039;-80
2022/08/20 03:40:39;;;;;;;61.70;31.77;;;;;;;19.24;100.00;101191.25;5070767;28;20546;-81
2022/08/20 03:43:10;;;;;;;56.88;31.67;;;;;;;19.33;100.00;101190.19;5060183;28;20092;-81
2022/08/20 03:45:38;;;;;;;58.90;30.80;;;;;;;19.26;100.00;101192.78;5076543;28;20063;-80
2022/08/20 03:48:06;;;;;;;59.63;31.80;;;;;;;19.26;100.00;101191.94;5061366;28;20029;-81
2022/08/20 03:50:32;;;;;;;65.97;32.67;;;;;;;19.21;100.00;101192.44;5061061;28;20060;-82
2022/08/20 03:52:59;;;;;;;64.55;32.63;;;;;;;19.21;100.00;101189.66;5058334;28;20032;-81
2022/08/20 03:55:29;;;;;;;66.68;33.35;;;;;;;19.26;100.00;101200.25;5054986;28;20389;-80
2022/08/20 03:58:02;;;;;;;76.88;34.20;;;;;;;19.11;100.00;101200.06;5058380;28;20029;-81
2022/08/20 04:00:32;;;;;;;58.33;32.45;;;;;;;19.08;100.00;101205.94;5060492;28;20037;-80
2022/08/20 04:02:59;;;;;;;66.15;35.65;;;;;;;19.15;100.00;101195.03;5067244;28;20098;-80
2022/08/20 04:05:28;;;;;;;71.13;35.60;;;;;;;19.09;100.00;101193.81;5052493;28;20430;-82
2022/08/20 04:07:59;;;;;;;68.82;35.67;;;;;;;19.20;100.00;101207.38;5061255;28;20411;-80
2022/08/20 04:10:26;;;;;;;65.78;35.28;;;;;;;19.14;100.00;101208.03;5074682;28;20490;-82
2022/08/20 04:12:54;;;;;;;65.85;33.88;;;;;;;19.12;100.00;101214.78;5075744;28;20483;-81
2022/08/20 04:15:21;;;;;;;64.75;35.75;;;;;;;19.06;100.00;101213.56;5060794;28;20031;-82
2022/08/20 04:17:52;;;;;;;65.97;34.42;;;;;;;19.15;100.00;101217.25;5071129;28;20063;-80
2022/08/20 04:20:22;;;;;;;64.57;34.13;;;;;;;19.14;100.00;101213.59;5048271;28;20033;-80
2022/08/20 04:22:55;;;;;;;69.28;34.35;;;;;;;19.07;100.00;101213.41;5067532;28;20029;-82
2022/08/20 04:25:20;;;;;;;65.80;34.05;;;;;;;19.11;100.00;101213.94;5053722;28;20404;-81
2022/08/20 04:27:52;;;;;;;70.78;34.55;;;;;;;19.10;100.00;101210.31;5058356;28;20065;-82
2022/08/20 04:30:21;;;;;;;65.60;36.88;;;;;;;19.14;100.00;101219.16;5065251;28;20033;-81
2022/08/20 04:32:48;;;;;;;65.95;34.75;;;;;;;19.07;100.00;101224.50;5063679;28;20029;-82
2022/08/20 04:35:17;;;;;;;74.75;37.05;;;;;;;19.06;100.00;101230.22;5057263;28;20083;-79
2022/08/20 04:37:45;;;;;;;68.57;35.85;;;;;;;19.04;100.00;101227.63;5074761;28;20480;-81
2022/08/20 04:43:03;;;;;;;71.78;36.40;;;;;;;18.99;100.00;101237.47;5074528;28;20028;-81
2022/08/20 04:45:30;;;;;;;64.93;36.67;;;;;;;18.98;100.00;101235.75;5079477;28;20059;-81
2022/08/20 04:47:56;;;;;;;68.55;37.17;;;;;;;19.09;100.00;101241.84;5070470;28;20036;-81
2022/08/20 04:50:22;;;;;;;73.68;35.67;;;;;;;18.91;100.00;101252.19;5071655;28;20039;-81
2022/08/20 04:52:48;;;;;;;68.55;34.78;;;;;;;18.89;100.00;101257.91;5070950;28;20120;-81
2022/08/20 04:55:15;;;;;;;68.90;36.67;;;;;;;19.01;100.00;101257.63;5065856;28;20029;-82
2022/08/20 04:57:44;;;;;;;68.60;36.35;;;;;;;18.97;100.00;101261.75;5077490;28;20124;-80
2022/08/20 05:00:15;;;;;;;74.05;36.38;;;;;;;18.85;100.00;101250.09;5064800;28;20032;-81
2022/08/20 05:02:43;;;;;;;69.20;37.90;;;;;;;18.87;100.00;101262.78;5068562;28;20033;-79
2022/08/20 05:05:09;;;;;;;70.32;36.20;;;;;;;18.89;100.00;101268.16;5058400;28;20044;-77
2022/08/20 05:07:44;;;;;;;77.90;39.00;;;;;;;19.03;100.00;101272.19;5061252;28;20476;-77
2022/08/20 05:10:12;;;;;;;83.65;40.03;;;;;;;18.88;100.00;101264.50;5058464;28;20025;-79
2022/08/20 05:12:41;;;;;;;87.00;40.08;;;;;;;18.84;100.00;101276.97;5067995;28;20051;-78
2022/08/20 05:15:12;;;;;;;81.32;42.22;;;;;;;18.78;100.00;101271.19;5069204;28;20060;-81
2022/08/20 05:17:41;;;;;;;86.60;41.37;;;;;;;18.75;100.00;101277.91;5050037;28;20029;-79
2022/08/20 05:20:10;;;;;;;78.93;42.83;;;;;;;18.63;100.00;101274.56;5073678;28;20050;-79
2022/08/20 05:22:36;;;;;;;101.40;45.30;;;;;;;18.79;100.00;101278.44;5069914;28;20040;-80
2022/08/20 05:25:02;;;;;;;86.13;45.55;;;;;;;18.77;100.00;101277.75;5047449;28;20415;-80
2022/08/20 05:27:28;;;;;;;84.45;44.92;;;;;;;18.82;100.00;101284.53;5059709;28;20051;-78
2022/08/20 05:30:00;;;;;;;86.32;45.53;;;;;;;18.67;100.00;101283.41;5063027;28;20032;-79
2022/08/20 05:32:27;;;;;;;106.47;47.13;;;;;;;18.62;100.00;101283.91;5057958;28;20054;-77
2022/08/20 05:34:53;;;;;;;93.07;47.67;;;;;;;18.78;100.00;101296.16;5066596;28;20031;-79
2022/08/20 05:37:20;;;;;;;94.28;48.75;;;;;;;18.76;100.00;101288.00;5058520;28;20058;-78
2022/08/20 05:39:46;;;;;;;97.15;49.33;;;;;;;18.72;100.00;101290.19;5016290;28;20066;-78
2022/08/20 05:42:12;;;;;;;93.93;46.67;;;;;;;18.75;100.00;101283.47;5066442;28;20102;-78
2022/08/20 05:44:38;;;;;;;91.18;47.65;;;;;;;18.67;100.00;101284.28;5059588;28;20029;-79
2022/08/20 05:47:04;;;;;;;97.90;48.45;;;;;;;18.75;100.00;101294.56;5033006;28;20029;-78
2022/08/20 05:49:30;;;;;;;86.43;46.47;;;;;;;18.65;100.00;101289.13;5071105;28;20033;-80
2022/08/20 05:51:56;;;;;;;90.80;49.35;;;;;;;18.77;100.00;101291.63;5072445;28;20040;-78
2022/08/20 05:54:24;;;;;;;104.05;47.55;;;;;;;18.55;100.00;101289.25;5056260;28;20055;-79
2022/08/20 05:56:50;;;;;;;96.57;46.60;;;;;;;18.51;100.00;101285.06;5044301;28;20060;-80
2022/08/20 05:59:16;;;;;;;104.70;47.72;;;;;;;18.48;100.00;101290.94;5035365;28;20033;-80
2022/08/20 06:01:42;;;;;;;93.80;44.50;;;;;;;18.47;100.00;101300.28;5071747;28;20047;-78
2022/08/20 06:04:26;;;;;;;106.80;46.55;;;;;;;18.57;100.00;101293.75;5065836;28;20098;-79
2022/08/20 06:07:01;;;;;;;88.95;42.22;;;;;;;18.62;100.00;101297.78;5057625;28;20037;-79
2022/08/20 06:09:29;;;;;;;97.20;45.60;;;;;;;18.43;100.00;101292.44;5065822;28;20067;-78
2022/08/20 06:11:54;;;;;;;91.18;43.78;;;;;;;18.58;100.00;101292.72;5086801;28;20376;-78
2022/08/20 06:14:20;;;;;;;99.03;45.17;;;;;;;18.74;100.00;101296.47;5060513;28;20037;-79
2022/08/20 06:16:50;;;;;;;103.35;43.92;;;;;;;18.81;100.00;101296.69;5066429;28;20074;-78
2022/08/20 06:19:19;;;;;;;95.57;43.45;;;;;;;18.76;100.00;101301.88;5059083;28;20029;-78
2022/08/20 06:21:47;;;;;;;92.57;43.97;;;;;;;18.75;100.00;101308.44;5063933;28;20063;-78
2022/08/20 06:24:12;;;;;;;89.90;42.33;;;;;;;18.70;100.00;101310.84;5053046;28;20449;-79
2022/08/20 06:26:41;;;;;;;96.55;43.10;;;;;;;18.78;100.00;101308.09;5067603;28;20029;-79
2022/08/20 06:29:06;;;;;;;94.25;42.17;;;;;;;18.76;100.00;101307.41;5050421;28;20051;-78
2022/08/20 06:31:33;;;;;;;79.38;40.78;;;;;;;18.72;100.00;101306.84;5059155;28;20132;-77
2022/08/20 06:34:00;;;;;;;85.65;43.50;;;;;;;18.67;100.00;101306.47;5061166;28;20475;-77
2022/08/20 06:36:27;;;;;;;85.15;41.60;;;;;;;18.74;100.00;101310.34;5030986;28;20117;-79
2022/08/20 06:38:57;;;;;;;91.60;41.13;;;;;;;18.80;100.00;101319.91;5066915;28;20025;-78
2022/08/20 06:41:22;;;;;;;86.93;40.15;;;;;;;18.83;100.00;101311.28;5045075;28;20055;-79
2022/08/20 06:43:52;;;;;;;94.30;38.28;;;;;;;18.87;100.00;101309.94;5064283;28;20484;-79
2022/08/20 06:46:22;;;;;;;88.22;38.65;;;;;;;18.96;100.00;101308.06;5062582;28;20124;-78
2022/08/20 06:48:52;;;;;;;;;;;;;;;18.93;100.00;101313.94;5066964;28;20058;-81
2022/08/20 06:51:20;;;;;;;76.10;35.58;;;;;;;18.74;100.00;101315.91;5065292;28;19921;-78
2022/08/20 06:53:47;;;;;;;88.53;36.78;;;;;;;18.52;100.00;101306.19;5051070;28;20158;-78
2022/08/20 06:56:15;;;;;;;84.00;36.38;;;;;;;18.62;100.00;101308.00;5065393;28;20051;-80
2022/08/20 06:58:42;;;;;;;99.78;35.72;;;;;;;18.76;100.00;101315.75;5053325;28;20036;-81
2022/08/20 07:01:11;;;;;;;85.70;36.20;;;;;;;18.78;100.00;101319.22;5041286;28;20021;-81
2022/08/20 07:03:41;;;;;;;95.65;38.13;;;;;;;18.65;100.00;101313.22;5068298;28;20112;-81
2022/08/20 07:06:10;;;;;;;85.28;36.58;;;;;;;18.62;100.00;101321.88;5061312;28;20058;-81
2022/08/20 07:08:37;;;;;;;91.63;37.08;;;;;;;18.52;100.00;101317.28;5066527;28;20393;-80
2022/08/20 07:11:05;;;;;;;88.10;37.33;;;;;;;18.45;100.00;101319.00;5076495;28;20055;-81
2022/08/20 07:13:37;;;;;;;75.60;35.95;;;;;;;18.53;100.00;101324.59;5068373;28;20373;-81
2022/08/20 07:16:05;;;;;;;98.05;39.78;;;;;;;18.60;100.00;101326.72;5041772;28;20032;-81
2022/08/20 07:18:31;;;;;;;95.50;38.88;;;;;;;18.77;100.00;101330.47;5074265;28;20044;-80
2022/08/20 07:21:01;;;;;;;92.75;38.88;;;;;;;18.76;100.00;101329.59;5069454;28;20032;-79
2022/08/20 07:23:30;;;;;;;85.35;38.13;;;;;;;18.58;100.00;101328.78;5044528;28;20484;-79
2022/08/20 07:25:56;;;;;;;88.78;39.13;;;;;;;18.55;100.00;101328.06;5053955;28;20047;-79
2022/08/20 07:28:23;;;;;;;84.97;38.90;;;;;;;18.57;100.00;101333.44;5055835;28;20039;-80
2022/08/20 07:33:38;;;;;;;96.38;37.88;;;;;;;18.88;100.00;101338.56;5047425;28;20032;-79
2022/08/20 07:36:03;;;;;;;79.57;37.55;;;;;;;19.12;100.00;101334.16;5024597;28;20033;-81
2022/08/20 07:38:32;;;;;;;80.32;36.50;;;;;;;19.38;100.00;101342.44;5036207;28;20033;-79
2022/08/20 07:41:04;;;;;;;73.68;34.92;;;;;;;19.24;100.00;101342.03;5046733;28;20377;-78
2022/08/20 07:43:30;;;;;;;82.70;34.90;;;;;;;19.41;100.00;101340.22;5045531;28;20035;-80
2022/08/20 07:46:06;;;;;;;78.72;34.55;;;;;;;19.43;100.00;101343.69;5063462;28;20167;-80
2022/08/20 07:48:33;;;;;;;66.45;33.53;;;;;;;19.25;100.00;101342.88;5042966;28;20033;-80
2022/08/20 07:51:03;;;;;;;75.95;34.72;;;;;;;19.40;100.00;101346.78;5060612;28;20051;-79
2022/08/20 07:53:34;;;;;;;81.18;36.28;;;;;;;19.27;100.00;101351.94;5062261;28;20041;-80
2022/08/20 07:56:11;;;;;;;80.50;34.65;;;;;;;19.61;100.00;101354.69;5057033;28;20419;-81
2022/08/20 07:58:41;;;;;;;72.55;33.92;;;;;;;19.79;100.00;101367.59;5079018;28;20045;-84
2022/08/20 08:01:07;;;;;;;70.80;33.55;;;;;;;19.69;100.00;101364.94;5042405;28;20037;-84
2022/08/20 08:03:33;;;;;;;69.28;34.97;;;;;;;19.74;100.00;101370.00;5047090;28;20033;-84
2022/08/20 08:06:00;;;;;;;78.10;35.70;;;;;;;19.78;100.00;101372.28;5058471;28;20218;-84
2022/08/20 08:08:28;;;;;;;77.57;36.40;;;;;;;19.78;100.00;101363.09;5060273;28;20025;-86
2022/08/20 08:10:59;;;;;;;71.85;34.47;;;;;;;19.70;100.00;101371.38;5058489;28;20036;-83
2022/08/20 08:13:26;;;;;;;79.87;39.10;;;;;;;19.55;100.00;101365.59;5063145;28;20040;-84
2022/08/20 08:16:00;;;;;;;75.38;35.22;;;;;;;19.34;100.00;101366.03;5083742;28;20040;-85
2022/08/20 08:18:32;;;;;;;74.93;34.83;;;;;;;19.32;100.00;101360.66;5081676;28;20024;-83
2022/08/20 08:20:59;;;;;;;72.85;35.28;;;;;;;19.14;100.00;101359.88;5064569;28;20028;-84
2022/08/20 08:23:25;;;;;;;75.68;35.83;;;;;;;19.24;100.00;101372.56;5052506;28;20048;-84
2022/08/20 08:25:52;;;;;;;85.95;37.85;;;;;;;19.27;100.00;101379.72;5066338;28;20036;-84
2022/08/20 08:28:20;;;;;;;78.78;36.65;;;;;;;19.24;100.00;101380.91;5048651;28;20056;-83
2022/08/20 08:30:47;;;;;;;75.72;35.03;;;;;;;19.54;100.00;101369.41;5083614;28;20036;-84
2022/08/20 08:33:27;;;;;;;77.93;35.28;;;;;;;19.85;100.00;101378.03;5078938;28;20041;-83
2022/08/20 08:36:03;;;;;;;73.93;34.25;;;;;;;19.55;100.00;101383.13;5067358;28;20021;-83
2022/08/20 08:38:33;;;;;;;82.25;36.50;;;;;;;19.57;100.00;101374.63;5083989;28;20032;-85
2022/08/20 08:41:17;;;;;;;84.80;35.28;;;;;;;19.78;100.00;101372.28;5082946;28;20029;-84
2022/08/20 08:43:45;;;;;;;76.55;33.08;;;;;;;19.77;100.00;101366.91;5074092;28;20037;-84
2022/08/20 08:46:16;;;;;;;76.90;36.05;;;;;;;19.69;100.00;101380.75;5067761;28;20030;-84
2022/08/20 08:48:47;;;;;;;83.32;35.35;;;;;;;20.19;100.00;101396.53;5058459;28;20033;-82
2022/08/20 08:51:16;;;;;;;;;;;;;;;20.79;100.00;101391.72;5074901;28;20025;-83
2022/08/20 08:53:54;;;;;;;68.40;34.08;;;;;;;20.75;100.00;101393.97;5051462;28;19917;-83
2022/08/20 08:56:27;;;;;;;59.72;32.67;;;;;;;21.33;100.00;101394.72;5062501;28;20029;-83
2022/08/20 08:58:59;;;;;;;57.58;31.20;;;;;;;21.31;100.00;101394.03;5043272;28;20511;-82
2022/08/20 09:01:27;;;;;;;64.28;32.80;;;;;;;21.01;100.00;101398.47;5074567;28;20372;-80
2022/08/20 09:03:53;;;;;;;64.72;32.38;;;;;;;20.74;100.00;101395.00;5074784;28;20036;-80
2022/08/20 09:06:23;;;;;;;64.35;33.50;;;;;;;20.77;100.00;101404.94;5041189;28;21460;-80
2022/08/20 09:09:05;;;;;;;65.00;31.40;;;;;;;21.36;100.00;101413.84;5060533;28;20036;-79
2022/08/20 09:11:44;;;;;;;63.30;29.48;;;;;;;22.80;100.00;101406.06;5062520;28;20053;-80
2022/08/20 09:14:10;;;;;;;59.55;30.60;;;;;;;23.22;100.00;101415.81;5060577;28;20036;-81
2022/08/20 09:16:35;;;;;;;60.33;31.15;;;;;;;22.20;100.00;101404.94;5060572;28;20377;-80
2022/08/20 09:19:03;;;;;;;55.63;29.73;;;;;;;21.75;100.00;101414.97;5018503;28;20063;-80
2022/08/20 09:21:30;;;;;;;59.65;28.02;;;;;;;22.40;100.00;101410.94;5071687;28;20024;-79
2022/08/20 09:23:59;;;;;;;53.08;26.42;;;;;;;22.88;100.00;101411.56;5024473;28;20048;-80
2022/08/20 09:26:30;;;;;;;60.03;27.88;;;;;;;23.36;100.00;101408.47;5060556;28;20037;-80
2022/08/20 09:28:58;;;;;;;59.55;28.95;;;;;;;23.25;100.00;101409.84;5076702;28;20400;-81
2022/08/20 09:31:26;;;;;;;52.63;26.73;;;;;;;22.59;100.00;101398.41;5043212;28;20045;-80
2022/08/20 09:33:58;;;;;;;62.50;27.88;;;;;;;22.29;100.00;101395.50;5039112;28;20045;-81
2022/08/20 09:36:24;;;;;;;53.58;24.83;;;;;;;22.11;100.00;101397.69;5034620;28;21384;-79
2022/08/20 09:38:56;;;;;;;45.33;22.67;;;;;;;22.70;100.00;101402.69;5068629;28;20066;-79
2022/08/20 09:41:22;;;;;;;39.08;21.92;;;;;;;22.83;100.00;101397.31;5033480;28;20059;-79
2022/08/20 09:43:48;;;;;;;51.33;21.92;;;;;;;24.18;100.00;101398.16;5045827;28;20538;-81
2022/08/20 09:46:14;;;;;;;52.55;24.67;;;;;;;22.90;100.00;101391.84;5037987;28;20066;-78
2022/08/20 09:48:43;;;;;;;51.58;24.35;;;;;;;23.48;100.00;101389.28;5035693;28;20048;-79
2022/08/20 09:51:08;;;;;;;50.60;25.67;;;;;;;22.80;100.00;101394.03;5034660;28;20484;-80
2022/08/20 09:53:34;;;;;;;45.58;23.25;;;;;;;23.67;100.00;101396.22;5050958;28;20033;-79
2022/08/20 09:56:02;;;;;;;54.08;22.50;;;;;;;23.94;100.00;101397.47;5047830;28;20043;-80
2022/08/20 09:58:39;;;;;;;46.65;23.30;;;;;;;24.39;100.00;101395.38;5052946;28;20167;-79
2022/08/20 10:01:15;;;;;;;52.38;22.60;;;;;;;23.19;100.00;101396.63;5055164;28;20558;-79
2022/08/20 10:03:49;;;;;;;47.38;20.95;;;;;;;23.88;100.00;101397.41;5041259;28;20472;-80
2022/08/20 10:06:18;;;;;;;53.47;20.42;;;;;;;24.79;100.00;101394.91;5045858;28;20064;-79
2022/08/20 10:08:49;;;;;;;42.38;19.00;;;;;;;24.84;100.00;101394.28;5033159;28;20642;-78
2022/08/20 10:11:16;;;;;;;47.88;22.13;;;;;;;24.81;100.00;101400.31;5062539;28;20041;-79
2022/08/20 10:13:41;;;;;;;46.05;21.60;;;;;;;24.33;100.00;101398.09;5052989;28;20048;-78
2022/08/20 10:16:07;;;;;;;56.20;21.63;;;;;;;23.51;100.00;101402.03;5060124;28;20384;-80
2022/08/20 10:18:34;;;;;;;43.88;21.55;;;;;;;22.91;100.00;101397.22;5071420;28;20041;-80
2022/08/20 10:21:00;;;;;;;38.33;15.90;;;;;;;22.75;100.00;101398.25;5059372;28;20051;-79
2022/08/20 10:23:27;;;;;;;30.15;11.70;;;;;;;23.85;100.00;101395.84;5053630;28;20067;-78
2022/08/20 10:25:57;;;;;;;32.85;11.40;;;;;;;24.63;100.00;101395.19;5049462;28;20045;-80
2022/08/20 10:28:22;;;;;;;31.40;10.60;;;;;;;24.89;100.00;101391.75;5034444;28;20044;-81
2022/08/20 10:30:48;;;;;;;35.13;10.10;;;;;;;24.57;100.00;101399.69;5025302;28;20479;-79
2022/08/20 10:33:13;;;;;;;40.28;12.75;;;;;;;23.79;100.00;101399.38;5071510;28;20032;-79
2022/08/20 10:35:40;;;;;;;37.67;13.55;;;;;;;23.35;100.00;101398.38;5055548;28;20102;-79
2022/08/20 10:38:06;;;;;;;39.30;12.48;;;;;;;23.04;100.00;101398.53;5014102;28;20079;-81
2022/08/20 10:40:31;;;;;;;38.33;11.20;;;;;;;22.65;100.00;101405.16;5052777;28;20489;-78
2022/08/20 10:42:57;;;;;;;25.13;10.55;;;;;;;23.16;100.00;101401.75;5043562;28;20484;-80
2022/08/20 10:45:28;;;;;;;36.63;11.82;;;;;;;24.06;100.00;101405.34;5054762;28;20035;-80
2022/08/20 10:47:58;;;;;;;44.50;11.10;;;;;;;24.16;100.00;101411.50;5041673;28;20033;-79
2022/08/20 10:50:24;;;;;;;40.90;12.50;;;;;;;24.28;100.00;101403.44;5032367;28;20029;-79
2022/08/20 10:52:51;;;;;;;33.67;10.45;;;;;;;24.49;100.00;101399.78;5047200;28;20033;-79
2022/08/20 10:55:19;;;;;;;34.53;10.30;;;;;;;24.81;100.00;101392.78;5053623;28;20040;-78
2022/08/20 10:57:45;;;;;;;36.92;8.40;;;;;;;24.66;100.00;101412.47;5036778;28;20025;-78
2022/08/20 11:00:16;;;;;;;32.30;7.10;;;;;;;24.01;100.00;101408.75;5057217;28;20036;-79
2022/08/20 11:02:45;;;;;;;32.33;6.85;;;;;;;23.85;100.00;101410.69;5071695;28;20036;-79
2022/08/20 11:05:11;;;;;;;31.83;6.18;;;;;;;24.65;100.00;101405.13;5058538;28;20040;-80
2022/08/20 11:07:40;;;;;;;26.40;5.95;;;;;;;24.95;95.12;101400.19;5063262;28;20047;-80
2022/08/20 11:10:09;;;;;;;29.52;5.13;;;;;;;25.14;93.49;101397.78;5064570;28;20052;-80
2022/08/20 11:12:36;;;;;;;36.40;5.43;;;;;;;25.64;89.58;101411.69;5052432;28;20052;-80
2022/08/20 11:15:03;;;;;;;35.10;5.22;;;;;;;25.63;88.33;101404.34;5054658;28;20037;-80
2022/08/20 11:17:35;;;;;;;27.02;4.07;;;;;;;25.77;79.39;101408.09;5063783;28;20043;-79